Aeroporto :







RITROVATECI SU...

 
LOGIN :

Iscrizione | Disclaimer

   EN    FR    IT 

 









Sommario :    VFR   VFR Marginale   IFR   IFR Intensivo   IFR Molto Intensivo
Visibilità : 
Base nubi : 
>= 8 km
>= 3000ft
5 / 8 km
1000 / 3000 ft
1500m / 5 km
500 / 1000 ft
800 / 1500m
200 / 500 ft
< 800m
< 200 ft
Simboli :   Temporali  Nebbia  Neve Forte  Precipitazioni Forti  Vento > 20 kt






- Altitudine del aeroporto : 26 ft
- Codice IATA : BLA


SVBC - Gen. Jose Antonio Anzoategui I

ULTIMO METAR :
  • 270002Z AUTO 02008KT NCD 29/20 Q1011

METARs OBSOLETI :
  • 262302Z AUTO 02009KT NCD 30/20 Q1011
  • 262202Z AUTO 02010KT NCD 31/20 Q1011

TAF TAF SVBC
Valido dal 27 a 00 ore il 28 a 00 ore UTC


262200Z 2700/2800 05008KT 9999 FEW020 TX33/19Z TN26/09Z
BECMG 2700/2706 05002KT 9999 FEW016 SCT100



MetMap, La meteo Aeronautica in un colpo d'occhio ! - Copyright ORBIFLY Dicembre 2007 - Disclaimer

ORBIFLY MET'MAP TEAM :

Programmazione e sviluppo : Alexandra Zaïnal
Concezione : Baudouin d'Aumeries
Aiuto per la programmazione : Marc-Olivier Méhu
Supporto tecnico e logistico : Manuel Goepfert
Aiuto per la traduzione : Arnaldo La Scala

Contatto : metmap@orbifly.com




FONTI E CREDITI :

   NOAA